createdAt,value
2022-12-31T00:01:45.393Z,10.30
2022-12-31T00:04:11.996Z,10.30
2022-12-31T00:06:38.645Z,10.30
2022-12-31T00:09:07.215Z,10.30
2022-12-31T00:11:36.700Z,10.20
2022-12-31T00:14:03.960Z,10.30
2022-12-31T00:16:36.960Z,10.40
2022-12-31T00:19:05.096Z,10.30
2022-12-31T00:21:33.736Z,10.30
2022-12-31T00:24:01.509Z,10.30
2022-12-31T00:26:30.346Z,10.30
2022-12-31T00:28:58.264Z,10.30
2022-12-31T00:31:30.664Z,10.40
2022-12-31T00:33:57.967Z,10.50
2022-12-31T00:36:27.792Z,10.50
2022-12-31T00:38:56.072Z,10.50
2022-12-31T00:41:23.799Z,10.50
2022-12-31T00:43:51.006Z,10.50
2022-12-31T00:46:18.307Z,10.50
2022-12-31T00:48:45.513Z,10.50
2022-12-31T00:51:14.537Z,10.50
2022-12-31T00:53:41.340Z,10.50
2022-12-31T00:56:19.805Z,10.50
2022-12-31T00:58:47.114Z,10.50
2022-12-31T01:01:24.707Z,10.60
2022-12-31T01:03:53.745Z,10.60
2022-12-31T01:06:21.321Z,10.50
2022-12-31T01:08:49.211Z,10.50
2022-12-31T01:11:19.555Z,10.50
2022-12-31T01:13:51.921Z,10.50
2022-12-31T01:16:24.091Z,10.50
2022-12-31T01:18:51.489Z,10.50
2022-12-31T01:21:19.767Z,10.50
2022-12-31T01:23:46.864Z,10.60
2022-12-31T01:26:15.694Z,10.50
2022-12-31T01:28:42.400Z,10.60
2022-12-31T01:31:11.857Z,10.60
2022-12-31T01:33:39.142Z,10.60
2022-12-31T01:36:21.893Z,10.60
2022-12-31T01:38:52.202Z,10.60
2022-12-31T01:41:21.733Z,10.60
2022-12-31T01:43:48.292Z,10.60
2022-12-31T01:46:28.755Z,10.60
2022-12-31T01:49:00.137Z,10.70
2022-12-31T01:51:30.292Z,10.60
2022-12-31T01:53:58.285Z,10.80
2022-12-31T01:56:25.828Z,10.80
2022-12-31T01:58:56.081Z,10.80
2022-12-31T02:01:29.251Z,10.90
2022-12-31T02:03:57.223Z,10.90
2022-12-31T02:06:31.020Z,10.90
2022-12-31T02:08:58.215Z,10.90
2022-12-31T02:11:36.422Z,11.00
2022-12-31T02:14:14.860Z,11.00
2022-12-31T02:16:56.339Z,11.10
2022-12-31T02:19:51.288Z,11.10
2022-12-31T02:22:36.819Z,11.20
2022-12-31T02:25:19.471Z,11.20
2022-12-31T02:28:19.180Z,11.30
2022-12-31T02:30:50.618Z,11.30
2022-12-31T02:33:28.522Z,11.30
2022-12-31T02:35:59.200Z,11.30
2022-12-31T02:38:31.225Z,11.30
2022-12-31T02:40:58.550Z,11.30
2022-12-31T02:43:25.989Z,11.30
2022-12-31T02:46:04.369Z,11.20
2022-12-31T02:48:45.026Z,11.30
2022-12-31T02:51:31.308Z,11.30
2022-12-31T02:54:22.570Z,11.30
2022-12-31T02:57:11.404Z,11.30
2022-12-31T03:00:15.246Z,11.20
2022-12-31T03:02:45.351Z,11.20
2022-12-31T03:05:14.261Z,11.20
2022-12-31T03:07:42.679Z,11.20
2022-12-31T03:10:10.366Z,11.10
2022-12-31T03:12:46.748Z,11.00
2022-12-31T03:15:22.421Z,10.90
2022-12-31T03:17:56.954Z,10.90
2022-12-31T03:20:46.313Z,10.90
2022-12-31T03:23:15.988Z,10.80
2022-12-31T03:25:43.642Z,10.70
2022-12-31T03:28:14.087Z,10.70
2022-12-31T03:30:42.712Z,10.70
2022-12-31T03:33:09.454Z,10.60
2022-12-31T03:35:37.806Z,10.60
2022-12-31T03:38:05.222Z,10.60
2022-12-31T03:40:34.873Z,10.60
2022-12-31T03:43:01.528Z,10.70
2022-12-31T03:45:28.236Z,10.80
2022-12-31T03:47:54.937Z,10.90
2022-12-31T03:50:21.664Z,10.90
2022-12-31T03:52:48.804Z,10.90
2022-12-31T03:55:15.664Z,11.00
2022-12-31T03:57:42.337Z,11.10
2022-12-31T04:00:12.923Z,11.10
2022-12-31T04:02:39.809Z,11.20
2022-12-31T04:05:07.442Z,11.30
2022-12-31T04:07:34.085Z,11.30
2022-12-31T04:10:00.793Z,11.40
2022-12-31T04:12:27.428Z,11.50
2022-12-31T04:14:54.044Z,11.60
2022-12-31T04:17:20.748Z,11.60
2022-12-31T04:19:47.437Z,11.70
2022-12-31T04:22:14.182Z,11.80
2022-12-31T04:24:42.487Z,11.80
2022-12-31T04:27:12.862Z,11.80
2022-12-31T04:29:39.805Z,11.90
2022-12-31T04:32:07.536Z,12.00
2022-12-31T04:34:34.789Z,11.90
2022-12-31T04:37:01.590Z,11.90
2022-12-31T04:39:28.311Z,11.90
2022-12-31T04:41:55.057Z,12.00
2022-12-31T04:44:22.316Z,12.00
2022-12-31T04:46:48.983Z,12.00
2022-12-31T04:49:15.711Z,12.10
2022-12-31T04:51:42.386Z,12.10
2022-12-31T04:54:09.122Z,12.00
2022-12-31T04:56:36.943Z,12.10
2022-12-31T04:59:05.247Z,12.10
2022-12-31T05:01:32.939Z,12.00
2022-12-31T05:04:00.109Z,12.10
2022-12-31T05:06:26.765Z,12.10
2022-12-31T05:08:53.497Z,12.10
2022-12-31T05:11:20.284Z,12.20
2022-12-31T05:13:46.899Z,12.20
2022-12-31T05:16:13.908Z,12.40
2022-12-31T05:18:40.578Z,12.40
2022-12-31T05:21:07.517Z,12.40
2022-12-31T05:23:34.327Z,12.50
2022-12-31T05:26:01.811Z,12.40
2022-12-31T05:28:28.549Z,12.40
2022-12-31T05:30:55.273Z,12.40
2022-12-31T05:33:22.953Z,12.40
2022-12-31T05:35:49.660Z,12.50
2022-12-31T05:38:16.296Z,12.40
2022-12-31T05:40:43.000Z,12.40
2022-12-31T05:43:09.672Z,12.30
2022-12-31T05:45:36.419Z,12.40
2022-12-31T05:48:03.122Z,12.40
2022-12-31T05:50:29.753Z,12.40
2022-12-31T05:52:56.540Z,12.30
2022-12-31T05:55:24.135Z,12.30
2022-12-31T05:57:50.839Z,12.30
2022-12-31T06:00:17.712Z,12.30
2022-12-31T06:02:44.439Z,12.30
2022-12-31T06:05:12.061Z,12.30
2022-12-31T06:07:38.730Z,12.40
2022-12-31T06:10:06.434Z,12.40
2022-12-31T06:12:33.148Z,12.40
2022-12-31T06:14:59.846Z,12.40
2022-12-31T06:17:26.598Z,12.40
2022-12-31T06:19:53.192Z,12.50
2022-12-31T06:22:19.904Z,12.50
2022-12-31T06:24:46.544Z,12.40
2022-12-31T06:27:13.250Z,12.40
2022-12-31T06:29:40.118Z,12.50
2022-12-31T06:32:06.994Z,12.50
2022-12-31T06:34:33.677Z,12.50
2022-12-31T06:37:00.387Z,12.50
2022-12-31T06:39:27.298Z,12.50
2022-12-31T06:41:54.397Z,12.60
2022-12-31T06:44:22.439Z,12.70
2022-12-31T06:46:50.363Z,12.70
2022-12-31T06:49:17.292Z,12.80
2022-12-31T06:51:45.972Z,12.90
2022-12-31T06:54:13.571Z,12.90
2022-12-31T06:56:41.329Z,12.90
2022-12-31T06:59:26.151Z,12.90
2022-12-31T07:02:14.149Z,12.90
2022-12-31T07:04:53.396Z,12.90
2022-12-31T07:07:54.156Z,13.00
2022-12-31T07:10:39.749Z,13.00
2022-12-31T07:13:44.070Z,13.10
2022-12-31T07:16:35.748Z,13.10
2022-12-31T07:19:10.720Z,13.10
2022-12-31T07:21:40.054Z,13.10
2022-12-31T07:24:08.415Z,13.10
2022-12-31T07:27:11.817Z,13.20
2022-12-31T07:30:00.467Z,13.20
2022-12-31T07:33:15.255Z,13.20
2022-12-31T07:35:50.522Z,13.30
2022-12-31T07:38:48.388Z,13.20
2022-12-31T07:41:38.743Z,13.20
2022-12-31T07:44:24.795Z,13.10
2022-12-31T07:46:57.437Z,13.10
2022-12-31T07:49:25.976Z,13.10
2022-12-31T07:51:53.670Z,13.00
2022-12-31T07:54:20.897Z,13.00
2022-12-31T07:56:49.369Z,13.00
2022-12-31T07:59:40.684Z,13.10
2022-12-31T08:02:39.800Z,13.00
2022-12-31T08:05:32.417Z,13.00
2022-12-31T08:08:22.262Z,13.00
2022-12-31T08:11:02.175Z,12.90
2022-12-31T08:13:29.046Z,12.90
2022-12-31T08:15:56.126Z,12.90
2022-12-31T08:18:22.995Z,12.90
2022-12-31T08:21:03.605Z,12.90
2022-12-31T08:23:45.871Z,12.90
2022-12-31T08:26:29.780Z,12.90
2022-12-31T08:29:00.042Z,13.00
2022-12-31T08:31:35.180Z,13.00
2022-12-31T08:34:20.985Z,13.00
2022-12-31T08:36:54.919Z,13.00
2022-12-31T08:39:51.488Z,13.00
2022-12-31T08:42:27.269Z,13.00
2022-12-31T08:45:03.385Z,12.90
2022-12-31T08:48:01.240Z,13.00
2022-12-31T08:50:28.522Z,12.90
2022-12-31T08:52:55.636Z,13.00
2022-12-31T08:55:22.651Z,13.00
2022-12-31T08:58:25.873Z,13.00
2022-12-31T09:00:57.115Z,13.10
2022-12-31T09:03:40.268Z,13.10
2022-12-31T09:06:29.357Z,13.10
2022-12-31T09:09:22.001Z,13.20
2022-12-31T09:12:10.500Z,13.20
2022-12-31T09:14:59.512Z,13.20
2022-12-31T09:17:44.298Z,13.20
2022-12-31T09:20:42.859Z,13.30
2022-12-31T09:23:11.512Z,13.30
2022-12-31T09:25:51.188Z,13.40
2022-12-31T09:28:40.505Z,13.40
2022-12-31T09:31:18.393Z,13.40
2022-12-31T09:34:12.463Z,13.40
2022-12-31T09:36:48.361Z,13.50
2022-12-31T09:39:27.385Z,13.50
2022-12-31T09:42:21.687Z,13.60
2022-12-31T09:45:06.491Z,13.60
2022-12-31T09:48:00.151Z,13.60
2022-12-31T09:50:53.893Z,13.60
2022-12-31T09:53:35.851Z,13.70
2022-12-31T09:56:22.973Z,13.80
2022-12-31T09:59:06.371Z,13.80
2022-12-31T10:02:20.149Z,13.90
2022-12-31T10:05:03.634Z,13.90
2022-12-31T10:07:52.965Z,13.90
2022-12-31T10:10:36.675Z,13.90
2022-12-31T10:13:45.355Z,13.90
2022-12-31T10:16:16.502Z,14.00
2022-12-31T10:19:13.027Z,14.10
2022-12-31T10:22:13.053Z,14.20
2022-12-31T10:24:47.722Z,14.30
2022-12-31T10:27:37.254Z,14.40
2022-12-31T10:30:12.276Z,14.50
2022-12-31T10:33:12.225Z,14.60
2022-12-31T10:35:54.438Z,14.70
2022-12-31T10:38:43.040Z,14.70
2022-12-31T10:41:22.087Z,14.80
2022-12-31T10:44:03.571Z,14.90
2022-12-31T10:46:45.637Z,14.90
2022-12-31T10:49:35.073Z,15.00
2022-12-31T10:52:44.625Z,15.10
2022-12-31T10:55:49.044Z,15.00
2022-12-31T10:58:15.643Z,15.10
2022-12-31T11:01:22.389Z,15.10
2022-12-31T11:04:13.748Z,15.20
2022-12-31T11:07:12.038Z,15.30
2022-12-31T11:10:28.007Z,15.40
2022-12-31T11:13:15.158Z,15.40
2022-12-31T11:16:19.424Z,15.60
2022-12-31T11:18:51.963Z,15.60
2022-12-31T11:21:41.321Z,15.70
2022-12-31T11:24:41.492Z,15.70
2022-12-31T11:27:26.712Z,15.70
2022-12-31T11:30:27.432Z,15.70
2022-12-31T11:33:13.022Z,15.80
2022-12-31T11:36:22.986Z,15.80
2022-12-31T11:39:05.123Z,15.90
2022-12-31T11:41:41.467Z,16.00
2022-12-31T11:44:26.017Z,16.10
2022-12-31T11:47:28.052Z,16.20
2022-12-31T11:50:36.432Z,16.30
2022-12-31T11:53:25.702Z,16.40
2022-12-31T11:56:07.275Z,16.50
2022-12-31T11:58:34.028Z,16.50
2022-12-31T12:01:09.260Z,16.50
2022-12-31T12:03:42.365Z,16.60
2022-12-31T12:06:14.582Z,16.70
2022-12-31T12:08:42.246Z,16.70
2022-12-31T12:11:18.892Z,16.70
2022-12-31T12:13:46.381Z,16.80
2022-12-31T12:16:13.762Z,16.80
2022-12-31T12:18:50.702Z,16.80
2022-12-31T12:21:21.311Z,16.80
2022-12-31T12:24:01.453Z,16.80
2022-12-31T12:26:41.487Z,16.90
2022-12-31T12:29:28.768Z,16.90
2022-12-31T12:32:02.844Z,16.90
2022-12-31T12:34:32.090Z,16.90
2022-12-31T12:36:59.037Z,16.90
2022-12-31T12:39:31.789Z,16.90
2022-12-31T12:42:14.445Z,16.90
2022-12-31T12:44:42.050Z,16.80
2022-12-31T12:47:15.915Z,16.90
2022-12-31T12:49:46.429Z,16.90
2022-12-31T12:52:59.542Z,16.90
2022-12-31T12:55:39.058Z,16.80
2022-12-31T12:58:28.847Z,16.80
2022-12-31T13:01:18.612Z,16.80
2022-12-31T13:04:33.086Z,16.80
2022-12-31T13:07:12.187Z,16.90
2022-12-31T13:10:22.961Z,16.90
2022-12-31T13:13:24.238Z,16.90
2022-12-31T13:16:01.644Z,16.80
2022-12-31T13:18:31.110Z,16.90
2022-12-31T13:21:05.683Z,16.80
2022-12-31T13:23:40.654Z,16.90
2022-12-31T13:26:12.486Z,16.90
2022-12-31T13:28:42.721Z,16.90
2022-12-31T13:31:14.997Z,16.90
2022-12-31T13:33:47.786Z,16.90
2022-12-31T13:36:18.899Z,16.90
2022-12-31T13:38:52.008Z,16.90
2022-12-31T13:41:25.226Z,16.90
2022-12-31T13:44:16.585Z,16.80
2022-12-31T13:46:48.935Z,16.90
2022-12-31T13:49:31.565Z,16.80
2022-12-31T13:52:36.017Z,16.80
2022-12-31T13:55:13.680Z,16.70
2022-12-31T13:57:48.800Z,16.60
2022-12-31T14:00:26.625Z,16.60
2022-12-31T14:02:53.262Z,16.60
2022-12-31T14:05:41.659Z,16.60
2022-12-31T14:08:08.482Z,16.50
2022-12-31T14:11:04.865Z,16.50
2022-12-31T14:13:58.316Z,16.50
2022-12-31T14:16:39.456Z,16.40
2022-12-31T14:19:17.797Z,16.40
2022-12-31T14:22:04.661Z,16.40
2022-12-31T14:25:00.178Z,16.30
2022-12-31T14:27:30.922Z,16.30
2022-12-31T14:30:07.274Z,16.20
2022-12-31T14:33:08.689Z,16.20
2022-12-31T14:35:38.425Z,16.20
2022-12-31T14:38:18.095Z,16.10
2022-12-31T14:41:15.818Z,16.00
2022-12-31T14:43:58.709Z,16.00
2022-12-31T14:46:38.658Z,15.90
2022-12-31T14:49:35.732Z,15.90
2022-12-31T14:52:31.096Z,15.80
2022-12-31T14:55:19.160Z,15.70
2022-12-31T15:00:38.920Z,15.50
2022-12-31T15:03:14.625Z,15.30
2022-12-31T15:05:59.887Z,15.20
2022-12-31T15:08:56.711Z,15.10
2022-12-31T15:11:48.073Z,15.00
2022-12-31T15:14:45.237Z,14.80
2022-12-31T15:17:37.681Z,14.60
2022-12-31T15:20:24.877Z,14.50
2022-12-31T15:22:52.800Z,14.40
2022-12-31T15:25:22.371Z,14.30
2022-12-31T15:27:49.576Z,14.20
2022-12-31T15:30:28.573Z,14.20
2022-12-31T15:32:57.625Z,14.00
2022-12-31T15:35:28.931Z,14.00
2022-12-31T15:38:02.156Z,13.80
2022-12-31T15:40:29.625Z,13.70
2022-12-31T15:43:09.736Z,13.60
2022-12-31T15:45:42.085Z,13.50
2022-12-31T15:48:16.581Z,13.50
2022-12-31T15:50:43.914Z,13.40
2022-12-31T15:53:24.680Z,13.40
2022-12-31T15:55:54.359Z,13.30
2022-12-31T15:58:25.767Z,13.30
2022-12-31T16:01:13.850Z,13.20
2022-12-31T16:03:47.770Z,13.10
2022-12-31T16:06:16.478Z,13.10
2022-12-31T16:08:48.950Z,13.00
2022-12-31T16:11:16.973Z,12.90
2022-12-31T16:13:50.651Z,12.80
2022-12-31T16:16:26.570Z,12.80
2022-12-31T16:18:53.891Z,12.80
2022-12-31T16:21:34.804Z,12.80
2022-12-31T16:24:04.969Z,12.70
2022-12-31T16:26:51.539Z,12.70
2022-12-31T16:29:20.173Z,12.60
2022-12-31T16:31:48.277Z,12.60
2022-12-31T16:34:24.319Z,12.60
2022-12-31T16:36:59.437Z,12.60
2022-12-31T16:39:27.924Z,12.60
2022-12-31T16:42:09.736Z,12.50
2022-12-31T16:44:36.384Z,12.50
2022-12-31T16:47:04.055Z,12.40
2022-12-31T16:49:33.193Z,12.40
2022-12-31T16:52:05.912Z,12.40
2022-12-31T16:54:46.096Z,12.30
2022-12-31T16:57:24.361Z,12.30
2022-12-31T16:59:58.045Z,12.30
2022-12-31T17:02:38.982Z,12.30
2022-12-31T17:05:17.201Z,12.20
2022-12-31T17:07:43.853Z,12.20
2022-12-31T17:10:26.869Z,12.10
2022-12-31T17:15:44.890Z,12.10
2022-12-31T17:18:23.777Z,12.10
2022-12-31T17:20:52.320Z,12.00
2022-12-31T17:23:39.938Z,12.00
2022-12-31T17:26:20.649Z,11.90
2022-12-31T17:28:49.853Z,11.90
2022-12-31T17:31:40.743Z,11.90
2022-12-31T17:34:13.422Z,11.80
2022-12-31T17:37:12.919Z,11.80
2022-12-31T17:39:50.310Z,11.70
2022-12-31T17:42:33.153Z,11.70
2022-12-31T17:45:02.951Z,11.60
2022-12-31T17:47:37.927Z,11.60
2022-12-31T17:50:24.276Z,11.60
2022-12-31T17:52:55.770Z,11.60
2022-12-31T17:55:22.489Z,11.60
2022-12-31T17:57:55.101Z,11.50
2022-12-31T18:00:25.630Z,11.50
2022-12-31T18:02:52.801Z,11.50
2022-12-31T18:05:22.699Z,11.50
2022-12-31T18:07:50.358Z,11.40
2022-12-31T18:10:19.427Z,11.40
2022-12-31T18:12:47.345Z,11.30
2022-12-31T18:15:19.691Z,11.30
2022-12-31T18:17:46.722Z,11.20
2022-12-31T18:20:13.984Z,11.20
2022-12-31T18:22:43.093Z,11.10
2022-12-31T18:25:17.944Z,11.10
2022-12-31T18:27:44.585Z,11.00
2022-12-31T18:30:12.187Z,11.00
2022-12-31T18:32:41.174Z,11.00
2022-12-31T18:35:40.399Z,10.90
2022-12-31T18:38:01.395Z,10.90
2022-12-31T18:40:28.366Z,10.90
2022-12-31T18:42:59.670Z,10.80
2022-12-31T18:45:29.461Z,10.80
2022-12-31T18:47:56.143Z,10.80
2022-12-31T18:50:22.775Z,10.80
2022-12-31T18:52:49.391Z,10.80
2022-12-31T18:55:32.041Z,10.80
2022-12-31T18:57:58.673Z,10.80
2022-12-31T19:00:25.456Z,10.70
2022-12-31T19:02:52.170Z,10.70
2022-12-31T19:05:28.410Z,10.60
2022-12-31T19:07:55.269Z,10.60
2022-12-31T19:10:22.738Z,10.60
2022-12-31T19:12:49.874Z,10.60
2022-12-31T19:15:38.838Z,10.50
2022-12-31T19:18:05.576Z,10.50
2022-12-31T19:20:32.379Z,10.50
2022-12-31T19:22:59.007Z,10.50
2022-12-31T19:25:28.652Z,10.60
2022-12-31T19:27:55.297Z,10.60
2022-12-31T19:30:25.403Z,10.60
2022-12-31T19:32:52.580Z,10.50
2022-12-31T19:35:20.114Z,10.50
2022-12-31T19:37:48.543Z,10.50
2022-12-31T19:40:18.688Z,10.50
2022-12-31T19:42:46.117Z,10.50
2022-12-31T19:45:18.578Z,10.40
2022-12-31T19:47:45.583Z,10.40
2022-12-31T19:50:18.615Z,10.40
2022-12-31T19:52:47.311Z,10.40
2022-12-31T19:55:16.553Z,10.30
2022-12-31T19:57:43.176Z,10.30
2022-12-31T20:00:11.633Z,10.30
2022-12-31T20:02:38.511Z,10.30
2022-12-31T20:05:05.618Z,10.30
2022-12-31T20:07:32.484Z,10.30
2022-12-31T20:09:59.181Z,10.30
2022-12-31T20:12:26.925Z,10.20
2022-12-31T20:14:53.592Z,10.20
2022-12-31T20:17:20.227Z,10.20
2022-12-31T20:19:46.878Z,10.20
2022-12-31T20:22:13.506Z,10.20
2022-12-31T20:24:40.182Z,10.20
2022-12-31T20:27:10.992Z,10.10
2022-12-31T20:29:41.629Z,10.20
2022-12-31T20:32:08.259Z,10.20
2022-12-31T20:34:34.900Z,10.20
2022-12-31T20:37:01.545Z,10.20
2022-12-31T20:39:28.154Z,10.20
2022-12-31T20:41:54.769Z,10.20
2022-12-31T20:44:21.479Z,10.20
2022-12-31T20:46:48.141Z,10.20
2022-12-31T20:49:14.805Z,10.20
2022-12-31T20:51:41.480Z,10.20
2022-12-31T20:54:10.117Z,10.20
2022-12-31T20:56:39.531Z,10.20
2022-12-31T20:59:07.213Z,10.20
2022-12-31T21:01:55.552Z,10.20
2022-12-31T21:04:20.832Z,10.20
2022-12-31T21:06:48.059Z,10.10
2022-12-31T21:09:14.707Z,10.20
2022-12-31T21:11:59.813Z,10.20
2022-12-31T21:14:26.445Z,10.20
2022-12-31T21:16:53.101Z,10.20
2022-12-31T21:19:19.744Z,10.20
2022-12-31T21:21:48.012Z,10.10
2022-12-31T21:24:18.810Z,10.10
2022-12-31T21:26:48.595Z,10.10
2022-12-31T21:29:15.284Z,10.10
2022-12-31T21:31:41.903Z,10.10
2022-12-31T21:34:09.799Z,10.10
2022-12-31T21:36:36.385Z,10.10
2022-12-31T21:39:03.596Z,10.10
2022-12-31T21:41:48.617Z,10.00
2022-12-31T21:44:15.237Z,10.00
2022-12-31T21:47:00.784Z,10.00
2022-12-31T21:49:28.502Z,10.00
2022-12-31T21:52:13.550Z,10.00
2022-12-31T21:54:59.019Z,10.00
2022-12-31T21:57:25.621Z,10.00
2022-12-31T22:00:40.541Z,10.00
2022-12-31T22:03:16.459Z,9.90
2022-12-31T22:06:01.868Z,9.90
2022-12-31T22:08:30.432Z,9.90
2022-12-31T22:10:57.574Z,9.90
2022-12-31T22:13:24.371Z,9.90
2022-12-31T22:15:58.744Z,9.90
2022-12-31T22:18:28.844Z,9.90
2022-12-31T22:21:10.801Z,9.90
2022-12-31T22:23:42.885Z,9.90
2022-12-31T22:26:13.175Z,9.90
2022-12-31T22:28:41.332Z,9.90
2022-12-31T22:31:13.152Z,9.80
2022-12-31T22:33:39.840Z,9.80
2022-12-31T22:36:10.381Z,9.80
2022-12-31T22:38:37.873Z,9.80
2022-12-31T22:41:12.745Z,9.80
2022-12-31T22:43:41.394Z,9.80
2022-12-31T22:46:19.940Z,9.90
2022-12-31T22:48:47.092Z,9.90
2022-12-31T22:51:15.641Z,10.00
2022-12-31T22:53:43.367Z,10.00
2022-12-31T22:56:13.549Z,10.00
2022-12-31T22:58:40.726Z,10.00
2022-12-31T23:01:14.258Z,10.00
2022-12-31T23:03:43.833Z,10.00
2022-12-31T23:06:10.684Z,10.00
2022-12-31T23:08:37.403Z,10.10
2022-12-31T23:11:05.936Z,10.10
2022-12-31T23:14:00.201Z,10.10
2022-12-31T23:16:48.299Z,10.10
2022-12-31T23:19:34.380Z,10.10
2022-12-31T23:22:19.822Z,10.20
2022-12-31T23:24:46.495Z,10.20
2022-12-31T23:27:13.655Z,10.30
2022-12-31T23:29:46.734Z,10.30
2022-12-31T23:32:17.942Z,10.30
2022-12-31T23:34:45.972Z,10.30
2022-12-31T23:37:14.326Z,10.30
2022-12-31T23:39:41.911Z,10.30
2022-12-31T23:42:08.888Z,10.20
2022-12-31T23:44:35.648Z,10.20
2022-12-31T23:47:02.352Z,10.20
2022-12-31T23:49:29.142Z,10.20
2022-12-31T23:51:55.952Z,10.20
2022-12-31T23:54:22.603Z,10.10
2022-12-31T23:56:49.313Z,10.10
2022-12-31T23:59:15.941Z,10.10
